Latest Coastal Weather Observations for Cape Jaffa

IDS60701

Issued at 12:21 pm CST Tuesday 28 June 2022 (issued every 10 minutes, with the page automatically refreshed every 10 minutes)

About coastal observations | Map of coastal stations | Coastal observations for SA | Marine services | Other Formats
Station Details ID: 026095 Name: THE LIMESTONE Lat: -36.97 Lon: 139.72 Height: 17.0 m
Data from the previous 72 hours. | See also: Recent months at Cape Jaffa
Date/Time
CST
Wind Sea
Height
m
Swell Vis
km
Cloud Weather Temp
°C
Press
MSL
hPa
Rain since
9am
mm
Dir  Spd
kts
Gust
kts
Height
m
Period
s
Dir
28/12:00pm N 18 23 - - - - - - - 11.7 1027.5 0.0
28/11:30am N 18 23 - - - - - - - 11.3 1027.9 0.0
28/11:00am N 19 24 - - - - - - - 11.1 1028.2 0.0
28/10:30am N 21 25 - - - - - - - 10.7 1028.4 0.0
28/10:00am N 19 25 - - - - - - - 10.6 1028.8 0.0
28/09:30am N 18 24 - - - - - - - 10.0 1028.9 0.0
28/09:00am N 18 23 - - - - - - - 9.4 1028.8 0.2
28/08:30am N 18 24 - - - - - - - 9.3 1028.9 0.2
28/08:00am N 15 21 - - - - - - - 9.0 1029.1 0.2
28/07:30am N 14 19 - - - - - - - 8.5 1028.8 0.2
28/07:00am N 14 17 - - - - - - - 8.6 1028.9 0.2
28/06:30am NNE 15 18 - - - - - - - 8.6 1028.7 0.2
28/06:00am N 14 19 - - - - - - Recent precip. 8.6 1028.9 0.2
28/05:30am N 13 18 - - - - - - - 8.2 1029.1 0.2
28/05:00am NNE 11 13 - - - - - - - 8.0 1028.8 0.0
28/04:30am NNE 11 13 - - - - - - - 8.3 1029.0 0.0
28/04:00am NNE 10 11 - - - - - - - 8.1 1029.4 0.0
28/03:30am NNE 10 12 - - - - - - - 8.5 1029.9 0.0
28/03:00am NNE 10 13 - - - - - - - 8.7 1030.2 0.0
28/02:30am NNE 10 13 - - - - - - - 8.8 1030.5 0.0
28/02:00am NNE 10 12 - - - - - - - 8.6 1030.7 0.0
28/01:30am NNE 7 9 - - - - - - - 6.9 1030.9 0.0
28/01:00am NE 9 10 - - - - - - - 6.3 1031.1 0.0
28/12:30am NE 5 6 - - - - - - - 6.2 1031.6 0.0
28/12:00am NNE 7 7 - - - - - - - 6.8 1031.9 0.0
 
Date/Time
CST
Wind Sea
Height
m
Swell Vis
km
Cloud Weather Temp
°C
Press
MSL
hPa
Rain since
9am
mm
Dir  Spd
kts
Gust
kts
Height
m
Period
s
Dir
27/11:30pm NE 8 8 - - - - - - - 5.7 1032.1 0.0
27/11:00pm ENE 7 8 - - - - - - - 5.7 1032.2 0.0
27/10:30pm NE 4 6 - - - - - - - 6.2 1032.5 0.0
27/10:00pm NNE 4 5 - - - - - - - 7.4 1032.5 0.0
27/09:30pm N 5 7 - - - - - - - 8.9 1032.5 0.0
27/09:00pm N 7 8 - - - - - - - 8.6 1032.5 0.0
27/08:30pm N 6 7 - - - - - - - 8.9 1032.5 0.0
27/08:00pm N 7 8 - - - - - - - 9.3 1032.5 0.0
27/07:30pm N 6 7 - - - - - - - 9.3 1032.7 0.0
27/07:00pm N 7 9 - - - - - - - 9.5 1032.8 0.0
27/06:30pm NNW 6 8 - - - - - - - 9.1 1032.8 0.0
27/06:00pm NNW 4 5 - - - - - - - 9.3 1032.7 0.0
27/05:30pm NW 4 5 - - - - - - - 9.9 1032.7 0.0
27/05:00pm N 5 6 - - - - - - - 9.9 1032.7 0.0
27/04:30pm N 7 8 - - - - - - - 10.5 1033.0 0.0
27/04:00pm N 9 11 - - - - - - - 12.0 1032.9 0.0
27/03:30pm N 11 13 - - - - - - - 12.3 1033.1 0.0
27/03:00pm N 11 13 - - - - - - - 12.7 1033.1 0.0
27/02:30pm N 11 13 - - - - - - - 12.8 1033.2 0.0
27/02:00pm N 9 11 - - - - - - - 13.3 1033.5 0.0
27/01:30pm NNW 7 9 - - - - - - - 13.6 1033.8 0.0
27/01:00pm NNW 6 8 - - - - - - - 13.4 1034.2 0.0
27/12:30pm NNW 4 7 - - - - - - - 13.4 1034.7 0.0
27/12:00pm N 4 7 - - - - - - - 13.2 1035.1 0.0
27/11:30am N 3 5 - - - - - - - 13.3 1035.3 0.0
27/11:00am N 2 4 - - - - - - - 12.7 1035.5 0.0
27/10:30am N 2 4 - - - - - - - 12.4 1035.6 0.0
27/10:00am S 3 4 - - - - - - - 12.0 1035.5 0.0
27/09:30am S 3 4 - - - - - - - 11.1 1035.3 0.0
27/09:00am CALM 0 2 - - - - - - - 10.0 1035.2 0.0
27/08:30am CALM 0 2 - - - - - - - 9.6 1034.9 0.0
27/08:00am WSW 1 3 - - - - - - - 9.0 1034.5 0.0
27/07:30am S 1 3 - - - - - - - 8.1 1034.2 0.0
27/07:00am SSE 2 3 - - - - - - - 8.8 1033.3 0.0
27/06:30am SSE 1 2 - - - - - - - 9.6 1033.3 0.0
27/06:00am SSE 1 3 - - - - - - - 8.6 1033.4 0.0
27/05:30am CALM 0 0 - - - - - - - 8.3 1032.9 0.0
27/05:00am CALM 0 3 - - - - - - - 8.9 1032.9 0.0
27/04:30am CALM 0 0 - - - - - - - 9.4 1032.8 0.0
27/04:00am SSW 1 2 - - - - - - - 9.3 1032.8 0.0
27/03:30am SW 4 6 - - - - - - - 9.0 1032.8 0.0
27/03:00am SW 5 6 - - - - - - - 9.4 1032.8 0.0
27/02:30am SSW 3 5 - - - - - - - 9.5 1032.8 0.0
27/02:00am SW 5 8 - - - - - - - 9.5 1032.6 0.0
27/01:30am SSW 7 9 - - - - - - - 10.1 1032.5 0.0
27/01:00am SW 7 10 - - - - - - - 10.9 1032.7 0.0
27/12:30am SSW 8 10 - - - - - - - 10.7 1032.7 0.0
27/12:00am SSW 7 10 - - - - - - - 10.5 1032.8 0.0
 
Date/Time
CST
Wind Sea
Height
m
Swell Vis
km
Cloud Weather Temp
°C
Press
MSL
hPa
Rain since
9am
mm
Dir  Spd
kts
Gust
kts
Height
m
Period
s
Dir
26/11:30pm SSW 9 12 - - - - - - - 9.9 1032.7 0.0
26/11:00pm SSW 6 7 - - - - - - - 8.8 1032.3 0.0
26/10:30pm S 9 11 - - - - - - - 9.1 1032.1 0.0
26/10:00pm SSW 10 12 - - - - - - - 9.9 1032.0 0.0
26/09:30pm SSW 10 13 - - - - - - - 11.1 1031.7 0.0
26/09:00pm SSW 10 13 - - - - - - - 10.7 1031.4 0.0
26/08:30pm SSW 11 13 - - - - - - - 10.4 1031.2 0.0
26/08:00pm S 6 8 - - - - - - - 9.4 1030.8 0.0
26/07:30pm SSW 11 15 - - - - - - - 10.6 1030.4 0.0
26/07:00pm SSW 9 12 - - - - - - - 10.6 1030.0 0.0
26/06:30pm SSW 13 17 - - - - - - - 10.6 1029.7 0.0
26/06:00pm SSW 13 17 - - - - - - - 10.5 1029.4 0.0
26/05:30pm SW 11 15 - - - - - - - 10.5 1029.0 0.0
26/05:00pm SSW 12 15 - - - - - - - 10.4 1028.7 0.0
26/04:30pm SSW 11 14 - - - - - - - 10.9 1028.4 0.0
26/04:00pm SSW 14 20 - - - - - - - 11.3 1027.9 0.0
26/03:30pm SSW 13 16 - - - - - - - 12.0 1027.8 0.0
26/03:00pm SSW 16 20 - - - - - - - 11.7 1027.3 0.0
26/02:30pm SSW 16 21 - - - - - - - 12.6 1026.9 0.0
26/02:00pm SSW 13 17 - - - - - - - 12.4 1027.0 0.0
26/01:30pm SSW 13 16 - - - - - - - 12.7 1026.6 0.0
26/01:00pm SSW 12 16 - - - - - - - 12.4 1026.3 0.0
26/12:30pm SSW 13 16 - - - - - - - 12.3 1026.4 0.0
26/12:00pm SSW 11 14 - - - - - - - 13.4 1026.3 0.0
26/11:30am SW 10 13 - - - - - - - 12.9 1026.3 0.0
26/11:00am SSW 14 19 - - - - - - - 11.9 1026.6 0.0
26/10:30am SW 11 16 - - - - - - - 12.8 1026.4 0.0
26/10:00am SW 12 18 - - - - - - - 12.3 1026.1 0.0
26/09:30am SSW 13 17 - - - - - - - 12.1 1025.7 0.0
26/09:00am WSW 8 10 - - - - - - Recent precip. 11.3 1025.5 6.2
26/08:30am SW 9 14 - - - - - - - 10.9 1025.2 6.2
26/08:00am SSW 10 13 - - - - - - - 10.9 1024.9 6.0
26/07:30am SSW 9 11 - - - - - - - 11.7 1024.3 4.6
26/07:00am SSW 11 13 - - - - - - - 11.4 1023.8 4.6
26/06:30am SW 10 13 - - - - - - - 10.6 1023.5 4.6
26/06:00am SW 13 21 - - - - - - Rain 11.5 1023.0 4.0
26/05:30am SW 17 24 - - - - - - - 11.5 1022.6 3.4
26/05:00am WSW 13 18 - - - - - - - 12.4 1022.2 3.0
26/04:30am WSW 19 26 - - - - - - - 11.9 1022.0 3.0
26/04:26am WSW 15 26 - - - - - - - 12.3 1021.9 3.0
26/04:00am WSW 10 13 - - - - - - - 12.2 1022.0 3.0
26/03:30am WNW 12 18 - - - - - - - 12.6 1021.9 3.0
26/03:00am W 11 15 - - - - - - - 12.7 1021.9 3.0
26/02:30am W 11 15 - - - - - - - 12.6 1021.9 3.0
26/02:00am W 13 17 - - - - - - - 12.9 1021.7 3.0
26/01:30am W 15 18 - - - - - - - 13.0 1021.6 3.0
26/01:00am W 12 16 - - - - - - - 12.7 1021.3 3.0
26/12:30am W 14 22 - - - - - - - 13.4 1021.3 3.0
26/12:00am W 10 14 - - - - - - - 12.9 1021.4 3.0
 
Date/Time
CST
Wind Sea
Height
m
Swell Vis
km
Cloud Weather Temp
°C
Press
MSL
hPa
Rain since
9am
mm
Dir  Spd
kts
Gust
kts
Height
m
Period
s
Dir
25/11:30pm W 10 13 - - - - - - - 12.9 1021.3 3.0
25/11:00pm W 12 16 - - - - - - - 13.1 1021.2 3.0
25/10:30pm W 14 20 - - - - - - - 13.2 1021.1 3.0
25/10:00pm W 14 18 - - - - - - - 13.2 1021.2 3.0
25/09:30pm W 12 15 - - - - - - - 13.4 1021.2 3.0
25/09:00pm W 11 15 - - - - - - Recent precip. 12.6 1021.1 3.0
25/08:30pm W 19 25 - - - - - - - 12.3 1020.9 2.8
25/08:06pm W 15 28 - - - - - - - 13.3 1020.6 2.8
25/08:00pm WNW 13 17 - - - - - - - 13.3 1020.6 2.8
25/07:30pm WNW 12 15 - - - - - - - 12.9 1020.3 2.8
25/07:00pm WNW 14 23 - - - - - - - 12.7 1020.1 2.8
25/06:30pm NNW 11 14 - - - - - - - 13.4 1019.8 2.6
25/06:00pm NW 10 15 - - - - - - - 13.7 1019.5 2.6
25/05:30pm NW 10 14 - - - - - - - 13.3 1019.3 2.6
25/05:00pm NW 10 13 - - - - - - - 13.1 1019.1 2.6
25/04:30pm WNW 10 15 - - - - - - - 13.8 1019.1 2.6
25/04:00pm NW 9 12 - - - - - - - 13.5 1019.0 2.6
25/03:30pm WNW 11 15 - - - - - - - 13.6 1018.7 2.6
25/03:00pm WNW 14 21 - - - - - - Rain 13.4 1018.9 2.6
25/02:30pm WNW 10 15 - - - - - - - 14.9 1018.9 2.2
25/02:00pm WNW 10 13 - - - - - - - 13.9 1019.0 2.2
25/01:30pm WNW 12 18 - - - - - - - 13.8 1019.3 2.0
25/01:00pm WNW 9 12 - - - - - - - 14.2 1019.4 2.0
25/12:30pm WNW 13 18 - - - - - - - 13.4 1019.7 2.0

Other formats

Comma delimited format used in spreadsheet applications
http://www.bom.gov.au/fwo/IDS60701/IDS60701.94813.axf

JavaScript Object Notation format (JSON) in row-major order
http://www.bom.gov.au/fwo/IDS60701/IDS60701.94813.json

Data quality

Most of these data are generated automatically and are frequently updated. Quality checks on data are not normally performed. It is possible for incorrect values to appear. Refer to information at About Latest Weather Observations and please check the disclaimer before using these data.